Tiempo atmosférico en la estación meteorológica de Castell, Platja d'Aro, Girona (14 m.)



Fecha
DESCASC
Temp. máxima en grados centígrados (hora)
DESCASC
Temp. mínima en grados centígrados (hora)
DESCASC
Temp. media en grados centígrados
DESCASC
Racha de viento máxima en m/sg (hora)
DESCASC
Velocidad máxima media en intervalos de 10 minutos(hora)
DESCASC
Precipitaciones diarias en mm
DESCASC
Precipitaciones de 00:00 a 06:00 en mm
DESCASC
Precipitaciones de 06:00 a 12:00 en mm
DESCASC
Precipitaciones de 12:00 a 18:00 en mm
DESCASC
Precipitaciones de 18:00 a 24:00 en mm
DESCASC
17-09-2020 28.6 (14:10) 17.8 (07:00) 23.2 5 (13:20) 2.22 (13:20) -- -- 0 0 0
16-09-2020 26.9 (17:10) 19.2 (06:30) 23.1 5.28 (17:10) 2.78 (17:20) -- -- -- -- --
15-09-2020 28.3 (12:40) 16.3 (07:30) 22.3 7.22 (13:00) 3.89 (13:20) -- -- -- -- --
14-09-2020 27.4 (16:00) 15.8 (00:00) 21.6 5 (13:20) 2.78 (13:20) -- -- -- -- --
13-09-2020 30.2 (12:00) 17.2 (00:00) 23.7 6.11 (14:10) 3.33 (15:10) -- -- -- -- --
12-09-2020 30.2 (12:30) 17.9 (00:00) 24.1 7.5 (14:20) 3.89 (14:20) -- -- -- -- --
11-09-2020 30 (15:10) 19.1 (00:00) 24.6 10 (14:30) 5 (16:40) -- -- -- -- --
10-09-2020 26.9 (12:30) 16.1 (00:00) 21.5 6.11 (07:10) 3.06 (07:10) -- -- -- -- --
09-09-2020 25.9 (13:30) 17.8 (00:00) 21.8 8.06 (15:10) 3.89 (15:20) -- -- -- -- --
08-09-2020 25.7 (12:50) 15.7 (00:00) 20.7 12.5 (07:30) 5.28 (10:10) -- -- -- -- --
07-09-2020 25.3 (15:50) 16.8 (04:50) 21 11.94 (07:20) 5.28 (07:20) -- -- -- -- --
06-09-2020 26.1 (14:40) 17.9 (00:00) 22 12.78 (22:10) 6.11 (22:10) -- 0 -- -- --
05-09-2020 26.2 (13:10) 18.7 (00:00) 22.5 5.83 (15:50) 3.33 (13:20) 0 0 0 0 0
04-09-2020 26.9 (13:40) 15.9 (00:00) 21.4 5.83 (15:50) 3.06 (14:10) 0 0 0 0 0
03-09-2020 26.4 (13:00) 14.9 (00:00) 20.6 5.83 (01:00) 3.06 (14:40) 0 0 0 0 0
02-09-2020 27 (15:20) 15.6 (00:00) 21.3 8.89 (15:30) 4.17 (15:40) 0 0 0 0 0
01-09-2020 24.7 (14:40) 14 (00:00) 19.4 6.94 (21:50) 3.61 (22:00) 0 0 0 0 0
31-08-2020 26.1 (15:40) 12.9 (00:00) 19.5 8.33 (14:40) 4.44 (01:10) -- -- 0 0 0
30-08-2020 24.6 (13:10) 12 (00:00) 18.3 12.22 (02:20) 7.78 (02:20) -- -- -- -- --
29-08-2020 21.9 (16:10) 15.6 (00:00) 18.8 10.83 (07:10) 5.28 (07:20) -- -- -- -- --
28-08-2020 30.1 (11:30) 19.8 (00:00) 24.9 9.72 (20:40) 5 (16:20) -- -- -- -- --
27-08-2020 29.8 (14:10) 21.3 (00:00) 25.5 9.17 (15:00) 5 (15:00) 0 0 0 0 0
26-08-2020 29 (15:00) 20.6 (00:00) 24.8 6.11 (12:20) 3.33 (12:40) 0 0 0 0 0
25-08-2020 31.9 (14:00) 18.7 (00:00) 25.3 9.17 (14:50) 5 (14:20) 0 0 0 0 0
24-08-2020 29.2 (12:50) 21.2 (00:00) 25.2 10.28 (07:50) 3.89 (07:50) 0 0 0 0 0
23-08-2020 28 (13:00) 21.9 (00:00) 24.9 9.72 (07:40) 4.17 (05:30) 0 0 0 0 0
22-08-2020 31.7 (11:50) 24 (00:00) 27.9 8.89 (06:00) 4.44 (23:20) 0 0 0 0 0
21-08-2020 30.7 (14:40) 21.3 (00:00) 26 6.67 (18:00) 3.33 (15:50) 0 0 0 0 0
20-08-2020 30.5 (15:40) 20 (00:00) 25.3 9.17 (15:00) 4.44 (16:10) 0 0 0 0 0
19-08-2020 30.1 (14:30) 18.5 (00:00) 24.3 12.78 (15:10) 5.28 (17:00) 0 0 0 0 0

Gráficas

Temp. máximas Temp. mínimas Temp. medias Precipitaciones Rachas de viento máximas Velocidades máximas media en intervalos de 10 minutos

Datos horarios

Fecha y hora oficial Temperatura (ºC) Velocidad del viento (km/h) Dirección del viento Racha (km/h) Dirección de racha Precipitación (mm) Presión (hPa) Tendencia (hPa) Humedad (%)
2020-09-17 23:00:00 21.4 4 Oeste 9 Noroeste 0 -- -- 82
2020-09-17 22:00:00 22.2 4 Oeste 12 Sudoeste 0 -- -- 83
2020-09-17 21:00:00 22.9 3 Sur 7 Sudeste 0 -- -- 81
2020-09-17 20:00:00 24.4 3 Sudeste 8 Este 0 -- -- 79
2020-09-17 19:00:00 24.9 5 Nordeste 13 Este 0 -- -- 76
2020-09-17 18:00:00 25.9 6 Este 12 Sudeste 0 -- -- 67
2020-09-17 17:00:00 26.9 5 Este 14 Este 0 -- -- 55
2020-09-17 16:00:00 26.6 7 Este 14 Sudeste 0 -- -- 58
2020-09-17 15:00:00 27.8 6 Este 14 Este 0 -- -- 55
2020-09-17 14:00:00 28.3 6 Este 18 Sudeste 0 -- -- 55
2020-09-17 13:00:00 27.2 8 Sudeste 13 Sudeste 0 -- -- 58
2020-09-17 12:00:00 27 3 Este 11 Sur 0 -- -- 67
2020-09-17 11:00:00 26.5 3 Noroeste 9 Oeste 0 -- -- 62
2020-09-17 10:00:00 23.5 4 Sudoeste 14 Sudoeste 0 -- -- 76
2020-09-17 09:00:00 19.6 5 Oeste 10 Oeste 0 -- -- 84
2020-09-17 08:00:00 18.1 5 Sudoeste 13 Sudoeste 0 -- -- 89
2020-09-17 07:00:00 17.8 4 Oeste 12 Oeste 0 -- -- 91
2020-09-17 06:00:00 18.3 4 Oeste 13 Oeste 0 -- -- 91
2020-09-17 05:00:00 18.6 4 Oeste 15 Oeste 0 -- -- 91
2020-09-17 04:00:00 18.8 3 Oeste 11 Oeste 0 -- -- 91
2020-09-17 03:00:00 19.3 4 Oeste 10 Oeste 0 -- -- 90
2020-09-17 02:00:00 19.6 3 Sudoeste 11 Oeste 0 -- -- 90
2020-09-17 01:00:00 19.9 4 Oeste 11 Oeste 0 -- -- 90
2020-09-17 00:00:00 20 4 Oeste 12 Oeste 0 -- -- 88
2020-09-16 23:00:00 20.7 4 Oeste 11 Oeste 0 -- -- 86
2020-09-16 22:00:00 21.3 4 Oeste 10 Sudoeste 0 -- -- 84
2020-09-16 21:00:00 22.5 3 Oeste 9 Oeste 0 -- -- 85
2020-09-16 20:00:00 24.5 0 Calma 4 Noroeste 0 -- -- 82
2020-09-16 19:00:00 25.4 2 Sur 8 Este 0 -- -- 78
2020-09-16 18:00:00 25.8 3 Nordeste 19 Sur 0 -- -- 80
2020-09-16 17:00:00 26.8 6 Sudeste 17 Sudeste 0 -- -- 76
2020-09-16 16:00:00 26 7 Sudeste 15 Sudeste 0 -- -- 79
2020-09-16 15:00:00 26.2 5 Sudeste 17 Este 0 -- -- 77
2020-09-16 14:00:00 25.5 8 Este 15 Este 0 -- -- 78
2020-09-16 13:00:00 25.6 7 Sudeste 16 Sudeste 0 -- -- 75
2020-09-16 12:00:00 25.7 6 Este 13 Este 0 -- -- 76
2020-09-16 11:00:00 24.9 7 Este 13 Sudeste 0 -- -- 81
2020-09-16 10:00:00 21.7 5 Oeste 12 Oeste 0 -- -- 96
2020-09-16 09:00:00 20.2 5 Oeste 13 Oeste 0 -- -- 99
2020-09-16 08:00:00 19.7 2 Sudoeste 10 Sudoeste 0 -- -- 98
2020-09-16 07:00:00 19.4 4 Oeste 13 Oeste 0 -- -- 98
2020-09-16 06:00:00 19.5 4 Sudoeste 12 Sudoeste 0 -- -- 96
2020-09-16 05:00:00 19.6 3 Oeste 9 Oeste 0 -- -- 96
2020-09-16 04:00:00 19.9 3 Oeste 9 Oeste 0 -- -- 95
2020-09-16 03:00:00 20.3 4 Oeste 9 Oeste 0 -- -- 95
2020-09-16 02:00:00 20.7 3 Oeste 9 Oeste 0 -- -- 94
2020-09-16 01:00:00 20.9 2 Oeste 5 Oeste 0 -- -- 91
2020-09-16 00:00:00 21.8 0 Calma 6 Oeste 0 -- -- 90
2020-09-15 23:00:00 22.8 3 Oeste 12 Sudoeste 0 -- -- 87
2020-09-15 22:00:00 23.8 2 Sudoeste 7 Noroeste 0 -- -- 86
2020-09-15 21:00:00 24.5 2 Noroeste 14 Sur 0 -- -- 86
2020-09-15 20:00:00 25 6 Sur 14 Sudoeste 0 -- -- 84
2020-09-15 19:00:00 25.8 5 Sur 15 Sudoeste 0 -- -- 80
2020-09-15 18:00:00 26.1 10 Sudeste 19 Sur 0 -- -- 79
2020-09-15 17:00:00 27.4 6 Sudeste 23 Sur 0 -- -- 73
2020-09-15 16:00:00 28.1 9 Sur 24 Sur 0 -- -- 66
2020-09-15 15:00:00 27.5 10 Sur 25 Sur 0 -- -- 69
2020-09-15 14:00:00 27.3 10 Sur 26 Sur 0 -- -- 70
2020-09-15 13:00:00 28.2 12 Sur 26 Sur 0 -- -- 63
2020-09-15 12:00:00 -- 9 Sur 22 Sur 0 -- -- --
2020-09-15 11:00:00 26.5 8 Sur 19 Sudoeste 0 -- -- 77
2020-09-15 10:00:00 21.9 2 Nordeste 8 Oeste 0 -- -- 84
2020-09-15 09:00:00 18 5 Oeste 10 Oeste 0 -- -- 89
2020-09-15 08:00:00 16.6 4 Oeste 11 Sudoeste 0 -- -- 93
2020-09-15 07:00:00 16.5 5 Oeste 12 Oeste 0 -- -- 93
2020-09-15 06:00:00 16.8 4 Oeste 9 Oeste 0 -- -- 94
2020-09-15 05:00:00 17.3 4 Oeste 11 Oeste 0 -- -- 95
2020-09-15 04:00:00 17.9 4 Oeste 10 Oeste 0 -- -- 96
2020-09-15 03:00:00 17.9 4 Oeste 11 Oeste 0 -- -- 96
2020-09-15 02:00:00 18.1 4 Oeste 11 Oeste 0 -- -- 95
2020-09-15 01:00:00 18.6 4 Oeste 9 Oeste 0 -- -- 94
2020-09-15 00:00:00 19.4 3 Oeste 8 Oeste 0 -- -- 92
2020-09-14 23:00:00 20.5 3 Oeste 7 Oeste 0 -- -- 89
2020-09-14 22:00:00 22 3 Oeste 6 Oeste 0 -- -- 88
2020-09-14 21:00:00 23.3 0 Calma 9 Sudoeste 0 -- -- 86
2020-09-14 20:00:00 24.5 0 Calma 12 Sudeste 0 -- -- 81
2020-09-14 19:00:00 25.5 4 Sur 15 Sur 0 -- -- 76
2020-09-14 18:00:00 26 7 Sur 17 Sur 0 -- -- 77
2020-09-14 17:00:00 27.1 7 Sudeste 16 Sudeste 0 -- -- 70
2020-09-14 16:00:00 27.4 7 Sur 17 Sudeste 0 -- -- 63
2020-09-14 15:00:00 25.8 9 Este 17 Este 0 -- -- 78
2020-09-14 14:00:00 26.4 7 Sudeste 18 Sudeste 0 -- -- 76
2020-09-14 13:00:00 26.4 8 Este 16 Sudeste 0 -- -- 75
2020-09-14 12:00:00 26.2 7 Este 14 Nordeste 0 -- -- 74
2020-09-14 11:00:00 25.2 5 Este 10 Este 0 -- -- 72
2020-09-14 10:00:00 21.8 3 Oeste 8 Oeste 0 -- -- 75
2020-09-14 09:00:00 17.9 4 Oeste 11 Oeste 0 -- -- 87
2020-09-14 08:00:00 16.2 5 Oeste 13 Sur 0 -- -- 91
2020-09-14 07:00:00 15.8 6 Oeste 13 Oeste 0 -- -- 91
2020-09-14 06:00:00 16.3 6 Oeste 13 Oeste 0 -- -- 90
2020-09-14 05:00:00 16.7 6 Oeste 12 Sudoeste 0 -- -- 87
2020-09-14 04:00:00 16.6 4 Oeste 13 Noroeste 0 -- -- 86
2020-09-14 03:00:00 17 4 Oeste 13 Oeste 0 -- -- 85
2020-09-14 02:00:00 17.4 5 Oeste 13 Oeste 0 -- -- 82
2020-09-14 01:00:00 17.7 5 Oeste 11 Oeste 0 -- -- 83
2020-09-14 00:00:00 18.1 4 Oeste 8 Oeste 0 -- -- 85
2020-09-13 23:00:00 18.7 4 Oeste 8 Oeste 0 -- -- 83
2020-09-13 22:00:00 20 0 Calma 5 Oeste 0 -- -- 80
2020-09-13 21:00:00 21.5 0 Calma 5 Sudeste 0 -- -- 74
2020-09-13 20:00:00 23.2 3 Sudeste 9 Este 0 -- -- 67
2020-09-13 19:00:00 24.8 4 Este 15 Este 0 -- -- 62
2020-09-13 18:00:00 25.4 9 Este 15 Este 0 -- -- 60
2020-09-13 17:00:00 26.5 8 Este 17 Sudeste 0 -- -- 57
2020-09-13 16:00:00 27.3 9 Este 20 Nordeste 0 -- -- 51
2020-09-13 15:00:00 27.1 11 Este 22 Sudeste 0 -- -- 55
2020-09-13 14:00:00 27.8 11 Este 20 Este 0 -- -- 49
2020-09-13 13:00:00 28.2 10 Este 22 Este 0 -- -- 47
2020-09-13 12:00:00 30.2 7 Este 15 Nordeste 0 -- -- 39
2020-09-13 11:00:00 27.8 7 Nordeste 16 Este 0 -- -- 43
2020-09-13 10:00:00 23.8 8 Oeste 20 Oeste 0 -- -- 65
2020-09-13 09:00:00 19.7 5 Oeste 13 Oeste 0 -- -- 81
2020-09-13 08:00:00 17.4 6 Oeste 13 Noroeste 0 -- -- 86
2020-09-13 07:00:00 17.5 6 Oeste 15 Sudoeste 0 -- -- 85
2020-09-13 06:00:00 17.7 8 Oeste 17 Oeste 0 -- -- 85
2020-09-13 05:00:00 17.3 5 Oeste 12 Oeste 0 -- -- 87
2020-09-13 04:00:00 17.5 6 Oeste 13 Oeste 0 -- -- 86
2020-09-13 03:00:00 17.8 4 Oeste 13 Sudoeste 0 -- -- 84
2020-09-13 02:00:00 18.5 4 Oeste 12 Sudoeste 0 -- -- 82
2020-09-13 01:00:00 18.8 4 Oeste 11 Oeste 0 -- -- 78
2020-09-13 00:00:00 19.6 4 Sudoeste 12 Sudoeste 0 -- -- 75
2020-09-12 23:00:00 20.4 3 Sudoeste 12 Sudoeste 0 -- -- 74
2020-09-12 22:00:00 21.5 4 Oeste 12 Oeste 0 -- -- 71
2020-09-12 21:00:00 22.9 3 Oeste 8 Oeste 0 -- -- 65
2020-09-12 20:00:00 25.7 3 Oeste 5 Sudoeste 0 -- -- 58
2020-09-12 19:00:00 27.7 4 Este 10 Sudeste 0 -- -- 44
2020-09-12 18:00:00 27.9 4 Este 21 Sudeste 0 -- -- 44
2020-09-12 17:00:00 28.5 9 Este 24 Este 0 -- -- 46
2020-09-12 16:00:00 28.6 11 Este 26 Este 0 -- -- 48
2020-09-12 15:00:00 28.4 11 Este 27 Este 0 -- -- 53
2020-09-12 14:00:00 29.5 10 Este 21 Este 0 -- -- 47
2020-09-12 13:00:00 29.8 9 Este 18 Este 0 -- -- 45
2020-09-12 12:00:00 29.5 9 Norte 26 Noroeste 0 -- -- 41
2020-09-12 11:00:00 26.8 8 Oeste 18 Oeste 0 -- -- 60
2020-09-12 10:00:00 23.7 8 Oeste 21 Oeste 0 -- -- 70
2020-09-12 09:00:00 20.6 6 Oeste 18 Noroeste 0 -- -- 82
2020-09-12 08:00:00 18.1 3 Oeste 11 Sudoeste 0 -- -- 90
2020-09-12 07:00:00 18 5 Oeste 15 Sudoeste 0 -- -- 90
2020-09-12 06:00:00 18 5 Sudoeste 13 Noroeste 0 -- -- 90
2020-09-12 05:00:00 18.2 5 Oeste 13 Sudoeste 0 -- -- 90
2020-09-12 04:00:00 18.3 4 Oeste 11 Sudoeste 0 -- -- 89
2020-09-12 03:00:00 18.5 4 Oeste 10 Oeste 0 -- -- 89
2020-09-12 02:00:00 19 3 Oeste 10 Oeste 0 -- -- 86
2020-09-12 01:00:00 19.6 4 Oeste 16 Oeste 0 -- -- 84
2020-09-12 00:00:00 20 5 Oeste 12 Oeste 0 -- -- 82
2020-09-11 23:00:00 20.3 4 Oeste 10 Oeste 0 -- -- 82
2020-09-11 22:00:00 21.1 3 Oeste 6 Sudoeste 0 -- -- 78
2020-09-11 21:00:00 22.5 0 Calma 5 Sudeste 0 -- -- 76
2020-09-11 20:00:00 23.8 0 Calma 6 Sudeste 0 -- -- 68
2020-09-11 19:00:00 24.6 3 Este 17 Este 0 -- -- 65
2020-09-11 18:00:00 24.8 11 Este 28 Este 0 -- -- 64
2020-09-11 17:00:00 28 14 Este 33 Nordeste 0 -- -- 54
2020-09-11 16:00:00 29.6 17 Nordeste 32 Nordeste 0 -- -- 44
2020-09-11 15:00:00 29.7 15 Norte 36 Nordeste 0 -- -- 43
2020-09-11 14:00:00 29.2 14 Norte 36 Nordeste 0 -- -- 43
2020-09-11 13:00:00 28.9 15 Norte 28 Norte 0 -- -- 44
2020-09-11 12:00:00 28.6 9 Nordeste 28 Noroeste 0 -- -- 47
2020-09-11 11:00:00 28.2 12 Norte 27 Noroeste 0 -- -- 49
2020-09-11 10:00:00 23.8 10 Oeste 22 Noroeste 0 -- -- 68
2020-09-11 09:00:00 22.5 8 Noroeste 23 Noroeste 0 -- -- 74
2020-09-11 08:00:00 19.2 9 Oeste 19 Oeste 0 -- -- 89
2020-09-11 07:00:00 19.3 12 Oeste 20 Oeste 0 -- -- 89
2020-09-11 06:00:00 19.1 5 Oeste 15 Oeste 0 -- -- 94
2020-09-11 05:00:00 19.2 4 Oeste 14 Oeste 0 -- -- 94
2020-09-11 04:00:00 19.5 4 Oeste 13 Oeste 0 -- -- 94
2020-09-11 03:00:00 19.9 8 Oeste 16 Sudoeste 0 -- -- 93
2020-09-11 02:00:00 20.4 2 Oeste 9 Sudoeste 0 -- -- 92
2020-09-11 01:00:00 20.8 2 Oeste 11 Oeste 0 -- -- 91
2020-09-11 00:00:00 22 5 Sudeste 19 Noroeste 0 -- -- 81
2020-09-10 23:00:00 21.7 6 Oeste 14 Oeste 0 -- -- 83
2020-09-10 22:00:00 22.2 9 Oeste 17 Oeste 0 -- -- 81
2020-09-10 21:00:00 22.7 3 Oeste 8 Oeste 0 -- -- 82
2020-09-10 20:00:00 23.5 2 Sur 12 Sur 0 -- -- 77
2020-09-10 19:00:00 24.2 3 Sur 8 Sur 0 -- -- 70
2020-09-10 18:00:00 24.5 4 Sur 13 Sur 0 -- -- 69
2020-09-10 17:00:00 24.7 8 Sudeste 15 Sudeste 0 -- -- 70
2020-09-10 16:00:00 24.7 4 Este 17 Sur 0 -- -- 70
2020-09-10 15:00:00 25.7 10 Sudeste 17 Sudeste 0 -- -- 66
2020-09-10 14:00:00 25.2 8 Sudeste 19 Sur 0 -- -- 66
2020-09-10 13:00:00 26.1 9 Sudeste 21 Este 0 -- -- 61
2020-09-10 12:00:00 26.8 9 Este 19 Nordeste 0 -- -- 56
2020-09-10 11:00:00 25.5 7 Nordeste 18 Oeste 0 -- -- 61
2020-09-10 10:00:00 21.1 10 Oeste 19 Oeste 0 -- -- 81
2020-09-10 09:00:00 18 6 Oeste 20 Oeste 0 -- -- 90
2020-09-10 08:00:00 16.2 6 Oeste 22 Oeste 0 -- -- 94
2020-09-10 07:00:00 16.2 6 Oeste 18 Oeste 0 -- -- 95
2020-09-10 06:00:00 16.2 4 Oeste 12 Oeste 0 -- -- 95
2020-09-10 05:00:00 16.4 4 Oeste 12 Oeste 0 -- -- 95
2020-09-10 04:00:00 16.8 4 Sudoeste 15 Oeste 0 -- -- 95
2020-09-10 03:00:00 16.9 4 Oeste 14 Oeste 0 -- -- 95
2020-09-10 02:00:00 17.2 3 Sudoeste 10 Sudoeste 0 -- -- 95
2020-09-10 01:00:00 17.3 3 Oeste 11 Oeste 0 -- -- 93
2020-09-10 00:00:00 17.8 3 Oeste 9 Sudoeste 0 -- -- 90
2020-09-09 23:00:00 18.3 2 Sudoeste 7 Oeste 0 -- -- 90
2020-09-09 22:00:00 19.2 3 Oeste 5 Oeste 0 -- -- 86
2020-09-09 21:00:00 20.6 3 Sudoeste 13 Este 0 -- -- 82
2020-09-09 20:00:00 21.6 6 Nordeste 19 Este 0 -- -- 77
2020-09-09 19:00:00 21.9 10 Este 23 Este 0 -- -- 79
2020-09-09 18:00:00 23.3 11 Este 21 Este 0 -- -- 74
2020-09-09 17:00:00 25 9 Este 24 Nordeste 0 -- -- 64
2020-09-09 16:00:00 24.4 13 Este 29 Este 0 -- -- 70
2020-09-09 15:00:00 25.2 12 Este 26 Nordeste 0 -- -- 66
2020-09-09 14:00:00 25 11 Este 22 Este 0 -- -- 67
2020-09-09 13:00:00 25.2 9 Este 22 Este 0 -- -- 64
2020-09-09 12:00:00 24.2 10 Nordeste 22 Este 0 -- -- 68
2020-09-09 11:00:00 23.2 9 Noroeste 17 Norte 0 -- -- 73
2020-09-09 10:00:00 21.1 12 Norte 24 Norte 0 -- -- 80
2020-09-09 09:00:00 20.6 10 Norte 27 Norte 0 -- -- 83
2020-09-09 08:00:00 19.9 5 Norte 22 Norte 0 -- -- 83
2020-09-09 07:00:00 19.9 6 Norte 18 Noroeste 0 -- -- 83
2020-09-09 06:00:00 19.7 6 Norte 19 Noroeste 0 -- -- 84
2020-09-09 05:00:00 19.5 13 Noroeste 24 Norte 0 -- -- 83
2020-09-09 04:00:00 19.6 11 Norte 22 Noroeste 0 -- -- 82
2020-09-09 03:00:00 19.6 5 Norte 14 Noroeste 0 -- -- 84
2020-09-09 02:00:00 20.3 4 Nordeste 20 Norte 0 -- -- 79
2020-09-09 01:00:00 21.5 10 Nordeste 25 Nordeste 0 -- -- 71
2020-09-09 00:00:00 17.9 6 Oeste 14 Oeste 0 -- -- 89
2020-09-08 23:00:00 17.8 6 Oeste 15 Sudoeste 0 -- -- 89
2020-09-08 22:00:00 17.9 7 Oeste 18 Oeste 0 -- -- 90
2020-09-08 21:00:00 19.5 6 Oeste 21 Noroeste 0 -- -- 78
2020-09-08 20:00:00 19.8 12 Oeste 28 Oeste 0 -- -- 76
2020-09-08 19:00:00 19.7 11 Noroeste 23 Noroeste 0 -- -- 81
2020-09-08 18:00:00 19.6 10 Noroeste 34 Norte 0 -- -- 81
2020-09-08 17:00:00 19.5 18 Norte 40 Norte 0 -- -- 71
2020-09-08 16:00:00 22.3 14 Nordeste 37 Nordeste 0 -- -- 64
2020-09-08 15:00:00 24 13 Nordeste 35 Norte 0 -- -- 49
2020-09-08 14:00:00 25.5 12 Nordeste 35 Nordeste 0 -- -- 43
2020-09-08 13:00:00 25.7 16 Norte 43 Nordeste 0 -- -- 41
2020-09-08 12:00:00 25.1 14 Norte 38 Norte 0 -- -- 43
2020-09-08 11:00:00 23.1 13 Norte 39 Norte 0 -- -- 45
2020-09-08 10:00:00 22.8 16 Norte 39 Norte 0 -- -- 45
2020-09-08 09:00:00 21.8 15 Norte 37 Norte 0 -- -- 45
2020-09-08 08:00:00 20.6 15 Norte 45 Noroeste 0 -- -- 46
2020-09-08 07:00:00 20.6 15 Norte 34 Norte 0 -- -- 45
2020-09-08 06:00:00 20.9 10 Norte 30 Noroeste 0 -- -- 44
2020-09-08 05:00:00 20.9 13 Noroeste 27 Noroeste 0 -- -- 44
2020-09-08 04:00:00 20.6 14 Noroeste 32 Oeste 0 -- -- 45
2020-09-08 03:00:00 20.9 9 Norte 40 Noroeste 0 -- -- 44
2020-09-08 02:00:00 20.1 17 Noroeste 36 Noroeste 0 -- -- 46
2020-09-08 01:00:00 15.7 5 Oeste 20 Oeste 0 -- -- 88
2020-09-08 00:00:00 16.9 10 Oeste 26 Oeste 0 -- -- 86
2020-09-07 23:00:00 17.7 15 Oeste 25 Oeste 0 -- -- 83
2020-09-07 22:00:00 19.1 13 Oeste 22 Oeste 0 -- -- 78
2020-09-07 21:00:00 21.4 10 Noroeste 22 Noroeste 0 -- -- 40
2020-09-07 20:00:00 22.5 11 Norte 35 Noroeste 0 -- -- 38
2020-09-07 19:00:00 23.4 10 Norte 37 Norte 0 -- -- 36
2020-09-07 18:00:00 23.7 15 Norte 36 Norte 0 -- -- 35
2020-09-07 17:00:00 23.9 12 Norte 24 Nordeste 0 -- -- 36
2020-09-07 16:00:00 25.3 8 Sudeste 26 Sudeste 0 -- -- 41
2020-09-07 15:00:00 24.9 7 Sur 36 Nordeste 0 -- -- 47
2020-09-07 14:00:00 24.7 7 Nordeste 22 Este 0 -- -- 42
2020-09-07 13:00:00 21.1 6 Oeste 11 Oeste 0 -- -- 59
2020-09-07 12:00:00 19.8 4 Noroeste 20 Noroeste 0 -- -- 62
2020-09-07 11:00:00 19.6 8 Noroeste 30 Noroeste 0 -- -- 56
2020-09-07 10:00:00 19.4 11 Noroeste 34 Noroeste 0 -- -- 57
2020-09-07 09:00:00 18.5 13 Norte 34 Noroeste 0 -- -- 58
2020-09-07 08:00:00 18.3 17 Norte 43 Noroeste 0 -- -- 59
2020-09-07 07:00:00 18.2 17 Norte 40 Norte 0 -- -- 62
2020-09-07 06:00:00 17.9 14 Norte 36 Nordeste 0 -- -- 64
2020-09-07 05:00:00 16.9 10 Norte 22 Nordeste 0 -- -- 75
2020-09-07 04:00:00 17.7 9 Nordeste 25 Nordeste 0 -- -- 75
2020-09-07 03:00:00 19.2 6 Nordeste 23 Noroeste 0 -- -- 73
2020-09-07 02:00:00 19 12 Norte 34 Norte 0 -- -- 73
2020-09-07 01:00:00 18.1 13 Norte 36 Noroeste 0 -- -- 78
2020-09-07 00:00:00 18.7 14 Norte 42 Noroeste 0 -- -- 74
2020-09-06 23:00:00 19.1 19 Norte 46 Norte 0 -- -- 75
2020-09-06 22:00:00 20.3 18 Norte 42 Norte 0 -- -- 63
2020-09-06 21:00:00 20.2 17 Norte 44 Norte 0 -- -- 70
2020-09-06 20:00:00 21.4 15 Norte 32 Norte 0 -- -- 64
2020-09-06 19:00:00 23.2 3 Noroeste 8 Este 0 -- -- 72
2020-09-06 18:00:00 23.4 3 Este 10 Este 0 -- -- 69
2020-09-06 17:00:00 23.9 4 Este 14 Este 0 -- -- 65
2020-09-06 16:00:00 24.4 8 Este 19 Este 0 -- -- 66
2020-09-06 15:00:00 25.6 9 Este 20 Este 0 -- -- 66
2020-09-06 14:00:00 25.6 6 Este 17 Sudeste 0 -- -- 65
2020-09-06 13:00:00 24.3 3 Sudeste 16 Nordeste 0 -- -- 67
2020-09-06 12:00:00 24.2 5 Norte 13 Noroeste 0 -- -- 66
2020-09-06 11:00:00 24.9 4 Oeste 10 Oeste 0 -- -- 75
2020-09-06 10:00:00 23.7 5 Oeste 13 Oeste 0 -- -- 81
2020-09-06 09:00:00 20.5 4 Oeste 10 Oeste 0 -- -- 92
2020-09-06 08:00:00 18.3 3 Oeste 8 Oeste 0 -- -- 96
2020-09-06 07:00:00 18 3 Oeste 7 Oeste 0 -- -- 94
2020-09-06 06:00:00 18.7 4 Noroeste 7 Oeste 0 -- -- 95
2020-09-06 05:00:00 18.7 5 Oeste 10 Oeste 0 -- -- 94
2020-09-06 04:00:00 18.6 3 Oeste 10 Oeste 0 -- -- 95
2020-09-06 03:00:00 19 5 Oeste 9 Oeste 0 -- -- 93
2020-09-06 02:00:00 19.5 4 Oeste 9 Oeste 0 -- -- 93
2020-09-06 01:00:00 19.8 3 Oeste 9 Oeste 0 -- -- 92
2020-09-06 00:00:00 20.5 3 Oeste 9 Noroeste 0 -- -- 91
2020-09-05 23:00:00 21 3 Oeste 6 Oeste 0 -- -- 89
2020-09-05 22:00:00 21.8 0 Calma 8 Oeste 0 -- -- 85
2020-09-05 21:00:00 23.2 0 Calma 10 Sur 0 -- -- 81
2020-09-05 20:00:00 24.1 4 Sur 10 Sur 0 -- -- 76
2020-09-05 19:00:00 24.6 4 Sudeste 11 Sudeste 0 -- -- 79
2020-09-05 18:00:00 25 6 Sudeste 16 Este 0 -- -- 78
2020-09-05 17:00:00 25.3 8 Este 17 Este 0 -- -- 75
2020-09-05 16:00:00 25.6 8 Este 21 Este 0 -- -- 75
2020-09-05 15:00:00 25.6 9 Este 17 Este 0 -- -- 74
2020-09-05 14:00:00 25.9 9 Este 19 Este 0 -- -- 71
2020-09-05 13:00:00 26 9 Este 18 Este 0 -- -- 73
2020-09-05 12:00:00 25.2 6 Este 13 Este 0 -- -- 73
2020-09-05 11:00:00 23.9 4 Norte 10 Noroeste 0 -- -- 79
2020-09-05 10:00:00 21.5 4 Oeste 9 Oeste 0 -- -- 92
2020-09-05 09:00:00 20.1 3 Oeste 8 Oeste 0 -- -- 95
2020-09-05 08:00:00 19.3 3 Oeste 8 Oeste 0 -- -- 96
2020-09-05 07:00:00 18.7 4 Oeste 9 Sudoeste 0 -- -- 96
2020-09-05 06:00:00 18.9 3 Oeste 9 Oeste 0 -- -- 96
2020-09-05 05:00:00 19.1 4 Oeste 9 Noroeste 0 -- -- 95
2020-09-05 04:00:00 19.3 4 Oeste 7 Oeste 0 -- -- 95
2020-09-05 03:00:00 19.2 4 Oeste 7 Oeste 0 -- -- 93
2020-09-05 02:00:00 19.8 5 Oeste 8 Oeste 0 -- -- 93
2020-09-05 01:00:00 19.9 5 Oeste 9 Oeste 0 -- -- 93
2020-09-05 00:00:00 20.6 3 Oeste 7 Noroeste 0 -- -- 91
2020-09-04 23:00:00 21.3 0 Calma 4 Oeste 0 -- -- 90
2020-09-04 22:00:00 21.9 0 Calma -- -- 0 -- -- 86
2020-09-04 21:00:00 22.6 0 Calma 5 Sudeste 0 -- -- 83
2020-09-04 20:00:00 24.3 3 Sudeste 12 Sudeste 0 -- -- 76
2020-09-04 19:00:00 25 5 Sur 16 Este 0 -- -- 76
2020-09-04 18:00:00 25.2 8 Sudeste 17 Sudeste 0 -- -- 77
2020-09-04 17:00:00 26.1 6 Sudeste 19 Sudeste 0 -- -- 74
2020-09-04 16:00:00 26.7 9 Sudeste 21 Sudeste 0 -- -- 71
2020-09-04 15:00:00 26.4 9 Este 19 Este 0 -- -- 74
2020-09-04 14:00:00 26.6 8 Este 19 Sudeste 0 -- -- 72
2020-09-04 13:00:00 26.7 9 Este 18 Este 0 -- -- 69
2020-09-04 12:00:00 26.4 7 Este 14 Este 0 -- -- 71
2020-09-04 11:00:00 25.3 6 Este 10 Sudeste 0 -- -- 69
2020-09-04 10:00:00 22.7 3 Oeste 15 Oeste 0 -- -- 79
2020-09-04 09:00:00 19.2 6 Oeste 14 Noroeste 0 -- -- 90
2020-09-04 08:00:00 16.4 5 Oeste 13 Oeste 0 -- -- 96
2020-09-04 07:00:00 16.2 5 Oeste 11 Oeste 0 -- -- 95
2020-09-04 06:00:00 16.5 3 Oeste 10 Oeste 0 -- -- 94
2020-09-04 05:00:00 17 2 Sudoeste 10 Oeste 0 -- -- 93
2020-09-04 04:00:00 17.5 4 Oeste 9 Oeste 0 -- -- 93
2020-09-04 03:00:00 17.9 2 Oeste 10 Oeste 0 -- -- 92
2020-09-04 02:00:00 18.6 4 Oeste 12 Oeste 0 -- -- 90
2020-09-04 01:00:00 19.3 0 Calma 9 Oeste 0 -- -- 88
2020-09-04 00:00:00 19.9 4 Oeste 10 Noroeste 0 -- -- 85
2020-09-03 23:00:00 20.2 2 Oeste 8 Oeste 0 -- -- 81
2020-09-03 22:00:00 21.1 3 Sudoeste 6 Oeste 0 -- -- 77
2020-09-03 21:00:00 22.5 3 Oeste 9 Sudoeste 0 -- -- 72
2020-09-03 20:00:00 23.9 4 Sudoeste 17 Sur 0 -- -- 64
2020-09-03 19:00:00 24.6 8 Sur 19 Sudoeste 0 -- -- 60
2020-09-03 18:00:00 25.7 8 Sur 17 Sudoeste 0 -- -- 56
2020-09-03 17:00:00 25.6 9 Sudeste 17 Este 0 -- -- 52
2020-09-03 16:00:00 26.1 9 Sudeste 21 Este 0 -- -- 49
2020-09-03 15:00:00 26.2 8 Sudeste 19 Este 0 -- -- 49
2020-09-03 14:00:00 26.3 9 Este 20 Este 0 -- -- 48
2020-09-03 13:00:00 26.4 9 Sudeste 18 Sudeste 0 -- -- 51
2020-09-03 12:00:00 25.5 4 Sudoeste 12 Sudoeste 0 -- -- 58
2020-09-03 11:00:00 23.2 3 Oeste 10 Oeste 0 -- -- 62
2020-09-03 10:00:00 19.7 4 Oeste 12 Oeste 0 -- -- 78
2020-09-03 09:00:00 17.3 4 Oeste 12 Oeste 0 -- -- 83
2020-09-03 08:00:00 15.3 5 Sudoeste 13 Sudoeste 0 -- -- 86
2020-09-03 07:00:00 15.1 4 Oeste 12 Oeste 0 -- -- 84
2020-09-03 06:00:00 15.6 4 Sudoeste 11 Oeste 0 -- -- 82
2020-09-03 05:00:00 16.1 3 Sudoeste 9 Norte 0 -- -- 80
2020-09-03 04:00:00 16.8 4 Oeste 10 Oeste 0 -- -- 76
2020-09-03 03:00:00 18.7 3 Oeste 8 Noroeste 0 -- -- 63
2020-09-03 02:00:00 21.4 4 Sudeste 18 Norte 0 -- -- 50
2020-09-03 01:00:00 21.8 10 Norte 21 Noroeste 0 -- -- 49
2020-09-03 00:00:00 20.3 3 Oeste 6 Oeste 0 -- -- 85
2020-09-02 23:00:00 20.8 3 Oeste 6 Oeste 0 -- -- 82
2020-09-02 22:00:00 21.2 2 Oeste 5 Sudoeste 0 -- -- 80
2020-09-02 21:00:00 22.4 3 Sudoeste 14 Sudoeste 0 -- -- 75
2020-09-02 20:00:00 23.5 6 Sudoeste 18 Sudoeste 0 -- -- 68
2020-09-02 19:00:00 23.9 7 Sur 21 Sur 0 -- -- 66
2020-09-02 18:00:00 23.3 8 Sudeste 26 Norte 0 -- -- 69
2020-09-02 17:00:00 25.5 9 Sur 32 Sudoeste 0 -- -- 59
2020-09-02 16:00:00 26.9 14 Sur 32 Sudeste 0 -- -- 57
2020-09-02 15:00:00 26.7 12 Sur 25 Sur 0 -- -- 54
2020-09-02 14:00:00 24.5 6 Sur 22 Sur 0 -- -- 61
2020-09-02 13:00:00 24.6 9 Sur 20 Sur 0 -- -- 56
2020-09-02 12:00:00 24.1 3 Sudoeste 13 Oeste 0 -- -- 57
2020-09-02 11:00:00 22.3 6 Oeste 13 Oeste 0 -- -- 68
2020-09-02 10:00:00 20.8 6 Oeste 19 Oeste 0 -- -- 76
2020-09-02 09:00:00 18.1 8 Oeste 17 Sudoeste 0 -- -- 88
2020-09-02 08:00:00 16.1 4 Oeste 12 Sudoeste 0 -- -- 94
2020-09-02 07:00:00 15.7 7 Oeste 17 Sudoeste 0 -- -- 92
2020-09-02 06:00:00 15.8 3 Oeste 9 Oeste 0 -- -- 94
2020-09-02 05:00:00 16.2 4 Oeste 12 Noroeste 0 -- -- 93
2020-09-02 04:00:00 16.7 4 Oeste 10 Sudoeste 0 -- -- 90
2020-09-02 03:00:00 18 4 Oeste 14 Noroeste 0 -- -- 80
2020-09-02 02:00:00 18 3 Sudoeste 19 Oeste 0 -- -- 85
2020-09-02 01:00:00 18.2 10 Oeste 21 Oeste 0 -- -- 88
2020-09-02 00:00:00 18.9 11 Oeste 20 Oeste 0 -- -- 83
2020-09-01 23:00:00 19.4 11 Oeste 20 Oeste 0 -- -- 80
2020-09-01 22:00:00 20.5 13 Oeste 25 Oeste 0 -- -- 74
2020-09-01 21:00:00 22.2 2 Oeste 6 Nordeste 0 -- -- 79
2020-09-01 20:00:00 23.1 3 Este 12 Sudeste 0 -- -- 72
2020-09-01 19:00:00 23.5 5 Sudeste 15 Este 0 -- -- 70
2020-09-01 18:00:00 23.9 6 Sudeste 19 Sudeste 0 -- -- 67
2020-09-01 17:00:00 23.6 6 Sudeste 19 Sudeste 0 -- -- 65
2020-09-01 16:00:00 24.1 8 Sudeste 20 Sudeste 0 -- -- 62
2020-09-01 15:00:00 24.7 9 Sudeste 19 Nordeste 0 -- -- 59
2020-09-01 14:00:00 24.4 9 Sudeste 18 Sur 0 -- -- 61
2020-09-01 13:00:00 23.6 8 Este 18 Este 0 -- -- 62
2020-09-01 12:00:00 23 8 Este 18 Este 0 -- -- 63
2020-09-01 11:00:00 22.4 8 Este 18 Nordeste 0 -- -- 63
2020-09-01 10:00:00 19.4 4 Oeste 17 Oeste 0 -- -- 75
2020-09-01 09:00:00 15.9 4 Oeste 12 Oeste 0 -- -- 85
2020-09-01 08:00:00 14.3 4 Oeste 13 Sudoeste 0 -- -- 91
2020-09-01 07:00:00 14.1 4 Oeste 13 Oeste 0 -- -- 90
2020-09-01 06:00:00 14.9 5 Oeste 13 Sudoeste 0 -- -- 89
2020-09-01 05:00:00 15.2 3 Oeste 9 Sudoeste 0 -- -- 88
2020-09-01 04:00:00 15.7 4 Oeste 12 Sudoeste 0 -- -- 87
2020-09-01 03:00:00 16 3 Oeste 9 Oeste 0 -- -- 87
2020-09-01 02:00:00 16.3 4 Oeste 13 Oeste 0 -- -- 83
2020-09-01 01:00:00 16.4 4 Oeste 9 Oeste 0 -- -- 89
2020-09-01 00:00:00 17.6 3 Oeste 10 Oeste 0 -- -- 85
2020-08-31 23:00:00 18.6 3 Oeste 7 Oeste 0 -- -- 82
2020-08-31 22:00:00 19.7 4 Oeste 8 Oeste 0 -- -- 78
2020-08-31 21:00:00 21.6 3 Nordeste 11 Sudoeste 0 -- -- 68
2020-08-31 20:00:00 23.4 4 Sur 19 Sur 0 -- -- 63
2020-08-31 19:00:00 24.3 10 Sudoeste 28 Sudoeste 0 -- -- 59
2020-08-31 18:00:00 25.2 11 Sur 28 Sur 0 -- -- 56
2020-08-31 17:00:00 24.7 13 Sur 30 Sudoeste 0 -- -- 59
2020-08-31 16:00:00 26 12 Sur 28 Sudoeste 0 -- -- 57
2020-08-31 15:00:00 25.8 12 Sudoeste 30 Sur 0 -- -- 49
2020-08-31 14:00:00 24.7 10 Sur 26 Sudoeste 0 -- -- 52
2020-08-31 13:00:00 23.9 13 Sur 26 Sur 0 -- -- 54
2020-08-31 12:00:00 23.7 9 Sur 18 Sudoeste 0 -- -- 53
2020-08-31 11:00:00 21.3 4 Sudoeste 13 Oeste 0 -- -- 64
2020-08-31 10:00:00 18.1 7 Oeste 19 Noroeste 0 -- -- 80
2020-08-31 09:00:00 15.8 4 Oeste 13 Oeste 0 -- -- 93
2020-08-31 08:00:00 13.1 4 Oeste 13 Noroeste 0 -- -- 97
2020-08-31 07:00:00 13.1 6 Oeste 15 Oeste 0 -- -- 96
2020-08-31 06:00:00 13.7 5 Oeste 18 Oeste 0 -- -- 96
2020-08-31 05:00:00 14.2 8 Oeste 21 Noroeste 0 -- -- 95
2020-08-31 04:00:00 15.3 11 Oeste 23 Oeste 0 -- -- 90
2020-08-31 03:00:00 16.4 11 Oeste 20 Noroeste 0 -- -- 82
2020-08-31 02:00:00 17.3 13 Noroeste 29 Noroeste 0 -- -- 74
2020-08-31 01:00:00 17.2 11 Norte 28 Nordeste 0 -- -- 74
2020-08-31 00:00:00 15.7 9 Oeste 18 Oeste 0 -- -- 94
2020-08-30 23:00:00 15.9 8 Oeste 19 Oeste 0 -- -- 94
2020-08-30 22:00:00 15.8 5 Oeste 23 Oeste 0 -- -- 95
2020-08-30 21:00:00 15.9 6 Noroeste 14 Noroeste 0 -- -- 96
2020-08-30 20:00:00 15.9 5 Oeste 12 Oeste 0 -- -- 95
2020-08-30 19:00:00 16.1 0 Calma 19 Nordeste 0 -- -- 93
2020-08-30 18:00:00 16.6 7 Oeste 32 Noroeste 0 -- -- 91
2020-08-30 17:00:00 18.4 15 Noroeste 32 Noroeste 0 -- -- 81
2020-08-30 16:00:00 21.7 11 Nordeste 25 Nordeste 0 -- -- 51
2020-08-30 15:00:00 24.4 13 Sur 23 Sudeste 0 -- -- 59
2020-08-30 14:00:00 22.5 6 Sur 16 Sur 0 -- -- 63
2020-08-30 13:00:00 24.5 7 Sur 15 Sur 0 -- -- 55
2020-08-30 12:00:00 22.4 4 Noroeste 10 Oeste 0 -- -- 62
2020-08-30 11:00:00 19.3 5 Oeste 18 Oeste 0 -- -- 78
2020-08-30 10:00:00 17.2 10 Oeste 21 Oeste 0 -- -- 81
2020-08-30 09:00:00 15.3 11 Oeste 17 Oeste 0 -- -- 91
2020-08-30 08:00:00 12.8 5 Oeste 17 Oeste 0 -- -- 98
2020-08-30 07:00:00 12.3 6 Oeste 21 Oeste 0 -- -- 97
2020-08-30 06:00:00 12.9 5 Oeste 12 Sudoeste 0 -- -- 96
2020-08-30 05:00:00 13.3 3 Oeste 13 Noroeste 0 -- -- 95
2020-08-30 04:00:00 14.4 9 Oeste 20 Oeste 0 -- -- 93
2020-08-30 03:00:00 15.1 4 Sudoeste 44 Noroeste 0 -- -- 94
2020-08-30 02:00:00 16.7 16 Oeste 31 Oeste 0 -- -- 92
2020-08-30 01:00:00 17 13 Oeste 23 Noroeste 0 -- -- 93
2020-08-30 00:00:00 16.3 10 Oeste 18 Noroeste 0 -- -- 96
2020-08-29 23:00:00 16.4 4 Oeste 10 Oeste 0 -- -- 94
2020-08-29 22:00:00 16.8 4 Oeste 14 Oeste 0 -- -- 93
2020-08-29 21:00:00 17.1 7 Oeste 11 Oeste 0 -- -- 92
2020-08-29 20:00:00 17.9 5 Norte 10 Oeste 0 -- -- 92
2020-08-29 19:00:00 19.1 2 Este 18 Sudoeste 0 -- -- 86
2020-08-29 18:00:00 20.7 3 Sudoeste 6 Sudeste 0 -- -- 76
2020-08-29 17:00:00 21.3 4 Este 16 Nordeste 0 -- -- 67
2020-08-29 16:00:00 21.7 6 Nordeste 19 Este 0 -- -- 63
2020-08-29 15:00:00 19.9 6 Nordeste 26 Nordeste 0 -- -- 72
2020-08-29 14:00:00 17.8 10 Norte 24 Norte 0 -- -- 84
2020-08-29 13:00:00 18.1 4 Norte 16 Norte 0 -- -- 77
2020-08-29 12:00:00 17.7 10 Noroeste 26 Noroeste 0 -- -- 81
2020-08-29 11:00:00 16.4 14 Norte 33 Norte 0 -- -- 84
2020-08-29 10:00:00 16.5 14 Noroeste 33 Noroeste 0 -- -- 83
2020-08-29 09:00:00 16.1 16 Norte 35 Noroeste 0 -- -- 86
2020-08-29 08:00:00 15.6 19 Norte 39 Noroeste 0 -- -- 86
2020-08-29 07:00:00 16.4 14 Norte 38 Norte 0 -- -- 82
2020-08-29 06:00:00 16.7 13 Norte 33 Norte 0 -- -- 84
2020-08-29 05:00:00 17.4 12 Norte 28 Norte 0 -- -- 82
2020-08-29 04:00:00 17.3 7 Nordeste 27 Nordeste 0 -- -- 84
2020-08-29 03:00:00 18 6 Nordeste 23 Nordeste 0 -- -- 84
2020-08-29 02:00:00 19 7 Norte 28 Noroeste 0 -- -- 76
2020-08-29 01:00:00 19.8 10 Norte 30 Nordeste 0 -- -- 69
2020-08-29 00:00:00 19.8 13 Norte 34 Norte 0 -- -- 68
2020-08-28 23:00:00 21.5 11 Norte 33 Norte 0 -- -- 62
2020-08-28 22:00:00 21.4 5 Sudeste 35 Norte 0 -- -- 64
2020-08-28 21:00:00 21.8 10 Norte 35 Norte 0 -- -- 64
2020-08-28 20:00:00 24.3 7 Nordeste 23 Este 0 -- -- 64
2020-08-28 19:00:00 26.4 9 Este 24 Nordeste 0 -- -- 63
2020-08-28 18:00:00 26.8 13 Este 30 Este 0 -- -- 70
2020-08-28 17:00:00 26.9 14 Este 31 Este 0 -- -- 68
2020-08-28 16:00:00 27 12 Este 30 Nordeste 0 -- -- 73
2020-08-28 15:00:00 27.6 14 Este 32 Este 0 -- -- 75
2020-08-28 14:00:00 29 10 Este 19 Sur 0 -- -- 70
2020-08-28 13:00:00 29.7 9 Sur 19 Sur 0 -- -- 68
2020-08-28 12:00:00 29.3 10 Sudeste 20 Sudeste 0 -- -- 69
2020-08-28 11:00:00 30 5 Sudeste 14 Sudeste 0 -- -- 54
2020-08-28 10:00:00 26.9 3 Noroeste 13 Oeste 0 -- -- 77
2020-08-28 09:00:00 23.3 4 Oeste 12 Oeste 0 -- -- 93
2020-08-28 08:00:00 21.4 4 Oeste 11 Oeste 0 -- -- 96
2020-08-28 07:00:00 21.3 3 Oeste 9 Noroeste 0 -- -- 96
2020-08-28 06:00:00 21.3 4 Oeste 9 Oeste 0 -- -- 96
2020-08-28 05:00:00 22 4 Oeste 10 Oeste 0 -- -- 95
2020-08-28 04:00:00 22.1 3 Oeste 8 Oeste 0 -- -- 94
2020-08-28 03:00:00 22.7 3 Oeste 10 Oeste 0 -- -- 93
2020-08-28 02:00:00 23.1 3 Oeste 7 Oeste 0 -- -- 91
2020-08-28 01:00:00 23.7 2 Oeste 7 Oeste 0 -- -- 89
2020-08-28 00:00:00 24 2 Sudoeste 6 Oeste 0 -- -- 87
2020-08-27 23:00:00 24.7 3 Oeste 4 Sudoeste 0 -- -- 83
2020-08-27 22:00:00 25.7 2 Oeste 12 Sudoeste 0 -- -- 81
2020-08-27 21:00:00 26.3 4 Sudoeste 17 Sudoeste 0 -- -- 77
2020-08-27 20:00:00 26.9 9 Sudoeste 24 Sudoeste 0 -- -- 74
2020-08-27 19:00:00 27.6 12 Sur 30 Sur 0 -- -- 71
2020-08-27 18:00:00 28.3 13 Sur 33 Sudoeste 0 -- -- 68
2020-08-27 17:00:00 28.9 16 Sur 32 Sudoeste 0 -- -- 66
2020-08-27 16:00:00 29.3 14 Sur 32 Sur 0 -- -- 67
2020-08-27 15:00:00 29.2 18 Sur 33 Sur 0 -- -- 67
2020-08-27 14:00:00 29.5 15 Sur 30 Sur 0 -- -- 65
2020-08-27 13:00:00 28.7 10 Sur 20 Sur 0 -- -- 69
2020-08-27 12:00:00 27.6 5 Sudeste 13 Sudeste 0 -- -- 77
2020-08-27 11:00:00 27.5 6 Este 14 Este 0 -- -- 74
2020-08-27 10:00:00 26.9 7 Este 12 Este 0 -- -- 74
2020-08-27 09:00:00 23.3 3 Oeste 9 Oeste 0 -- -- 93
2020-08-27 08:00:00 21.5 4 Oeste 9 Oeste 0 -- -- 97
2020-08-27 07:00:00 21.5 4 Oeste 9 Oeste 0 -- -- 97
2020-08-27 06:00:00 21.8 3 Oeste 9 Oeste 0 -- -- 97
2020-08-27 05:00:00 21.8 3 Sudoeste 10 Sudoeste 0 -- -- 95
2020-08-27 04:00:00 21.9 3 Oeste 9 Oeste 0 -- -- 94
2020-08-27 03:00:00 22.5 4 Oeste 7 Oeste 0 -- -- 94
2020-08-27 02:00:00 22.7 2 Oeste 7 Oeste 0 -- -- 93
2020-08-27 01:00:00 23.1 3 Oeste 6 Noroeste 0 -- -- 91
2020-08-27 00:00:00 23.8 4 Oeste 7 Oeste 0 -- -- 89
2020-08-26 23:00:00 24.4 3 Oeste 5 Oeste 0 -- -- 86
2020-08-26 22:00:00 25.2 2 Sudoeste 4 Sur 0 -- -- 83
2020-08-26 21:00:00 26.2 3 Sur 10 Sudeste 0 -- -- 80
2020-08-26 20:00:00 26.9 4 Este 12 Sur 0 -- -- 77
2020-08-26 19:00:00 27.3 6 Sur 15 Sur 0 -- -- 74
2020-08-26 18:00:00 27.6 7 Sur 19 Sur 0 -- -- 70
2020-08-26 17:00:00 28.9 8 Sur 20 Sudeste 0 -- -- 64
2020-08-26 16:00:00 28 9 Este 19 Sudeste 0 -- -- 62
2020-08-26 15:00:00 29 8 Sudeste 18 Sudeste 0 -- -- 58
2020-08-26 14:00:00 28.7 8 Este 18 Este 0 -- -- 60
2020-08-26 13:00:00 27.9 10 Este 22 Este 0 -- -- 63
2020-08-26 12:00:00 28.3 8 Este 20 Este 0 -- -- 60
2020-08-26 11:00:00 28.3 9 Este 16 Este 0 -- -- 55
2020-08-26 10:00:00 27.5 8 Este 15 Este 0 -- -- 60
2020-08-26 09:00:00 23.5 5 Oeste 9 Oeste 0 -- -- 86
2020-08-26 08:00:00 21.3 4 Oeste 10 Oeste 0 -- -- 94
2020-08-26 07:00:00 21 6 Oeste 10 Oeste 0 -- -- 94
2020-08-26 06:00:00 21.2 3 Oeste 10 Oeste 0 -- -- 94
2020-08-26 05:00:00 21.9 4 Oeste 10 Oeste 0 -- -- 94
2020-08-26 04:00:00 22.5 4 Oeste 10 Sudoeste 0 -- -- 93
2020-08-26 03:00:00 23.2 3 Oeste 7 Oeste 0 -- -- 92
2020-08-26 02:00:00 23.9 3 Oeste 11 Oeste 0 -- -- 91
2020-08-26 01:00:00 24.4 4 Oeste 9 Oeste 0 -- -- 89
2020-08-26 00:00:00 25.1 2 Oeste 5 Oeste 0 -- -- 88
2020-08-25 23:00:00 25.5 2 Sudoeste 6 Oeste 0 -- -- 85
2020-08-25 22:00:00 26.5 0 Calma 9 Sur 0 -- -- 83
2020-08-25 21:00:00 27.3 4 Sudoeste 17 Oeste 0 -- -- 80
2020-08-25 20:00:00 28.2 8 Sudoeste 27 Sur 0 -- -- 77
2020-08-25 19:00:00 29.5 8 Sur 25 Sudoeste 0 -- -- 72
2020-08-25 18:00:00 30.2 12 Sur 30 Sur 0 -- -- 68
2020-08-25 17:00:00 30.8 15 Sur 33 Sur 0 -- -- 67
2020-08-25 16:00:00 31.3 15 Sur 33 Sur 0 -- -- 66
2020-08-25 15:00:00 31.3 15 Sur 33 Sur 0 -- -- 66
2020-08-25 14:00:00 31.9 14 Sur 33 Sur 0 -- -- 63
2020-08-25 13:00:00 30.5 15 Sur 31 Sudoeste 0 -- -- 68
2020-08-25 12:00:00 29.6 14 Sur 28 Sudeste 0 -- -- 68
2020-08-25 11:00:00 29.2 5 Oeste 18 Sudoeste 0 -- -- 64
2020-08-25 10:00:00 26.4 6 Noroeste 11 Noroeste 0 -- -- 72
2020-08-25 09:00:00 22.2 4 Oeste 10 Oeste 0 -- -- 85
2020-08-25 08:00:00 19.3 4 Oeste 13 Sudoeste 0 -- -- 94
2020-08-25 07:00:00 19 3 Oeste 10 Oeste 0 -- -- 93
2020-08-25 06:00:00 19.8 8 Oeste 13 Oeste 0 -- -- 94
2020-08-25 05:00:00 20.2 4 Sudoeste 10 Oeste 0 -- -- 90
2020-08-25 04:00:00 20.5 3 Oeste 10 Sudoeste 0 -- -- 91
2020-08-25 03:00:00 20.8 3 Oeste 8 Sudoeste 0 -- -- 89
2020-08-25 02:00:00 21.5 3 Oeste 6 Oeste 0 -- -- 87
2020-08-25 01:00:00 22.2 4 Oeste 8 Oeste 0 -- -- 85
2020-08-25 00:00:00 22.8 3 Oeste 6 Oeste 0 -- -- 81
2020-08-24 23:00:00 24.1 3 Oeste 7 Noroeste 0 -- -- 76
2020-08-24 22:00:00 24.8 2 Oeste 11 Noroeste 0 -- -- 74
2020-08-24 21:00:00 25.2 3 Oeste 12 Oeste 0 -- -- 71
2020-08-24 20:00:00 26.1 5 Sudoeste 21 Sur 0 -- -- 66
2020-08-24 19:00:00 26.8 8 Sur 22 Sudoeste 0 -- -- 63
2020-08-24 18:00:00 27.9 10 Sur 26 Sudoeste 0 -- -- 59
2020-08-24 17:00:00 28.2 7 Sur 19 Sudeste 0 -- -- 55
2020-08-24 16:00:00 28.3 7 Sudeste 18 Sudeste 0 -- -- 51
2020-08-24 15:00:00 27.9 8 Sudeste 21 Sudeste 0 -- -- 50
2020-08-24 14:00:00 28.8 6 Sudeste 23 Sudeste 0 -- -- 45
2020-08-24 13:00:00 29.1 9 Sur 23 Noroeste 0 -- -- 49
2020-08-24 12:00:00 28.5 8 Norte 19 Nordeste 0 -- -- 48
2020-08-24 11:00:00 26.4 9 Norte 18 Norte 0 -- -- 51
2020-08-24 10:00:00 24.4 9 Noroeste 21 Noroeste 0 -- -- 55
2020-08-24 09:00:00 23.5 11 Noroeste 30 Norte 0 -- -- 58
2020-08-24 08:00:00 22.4 12 Norte 37 Noroeste 0 -- -- 58
2020-08-24 07:00:00 22.6 13 Norte 31 Norte 0 -- -- 57
2020-08-24 06:00:00 23.1 11 Norte 25 Norte 0 -- -- 56
2020-08-24 05:00:00 23.4 9 Norte 29 Norte 0 -- -- 55
2020-08-24 04:00:00 23.7 7 Norte 19 Noroeste 0 -- -- 55
2020-08-24 03:00:00 22.2 3 Oeste 7 Oeste 0 -- -- 75
2020-08-24 02:00:00 21.6 0 Calma 6 Oeste 0 -- -- 83
2020-08-24 01:00:00 21.3 5 Oeste 9 Oeste 0 -- -- 83
2020-08-24 00:00:00 21.9 2 Oeste 6 Oeste 0 -- -- 81
2020-08-23 23:00:00 22.8 2 Oeste 5 Oeste 0 -- -- 78
2020-08-23 22:00:00 23.6 2 Oeste 4 Oeste 0 -- -- 74
2020-08-23 21:00:00 25.1 4 Oeste 9 Oeste 0 -- -- 70
2020-08-23 20:00:00 26 5 Sur 12 Sur 0 -- -- 64
2020-08-23 19:00:00 26.7 4 Sur 10 Sur 0 -- -- 60
2020-08-23 18:00:00 26.7 5 Este 17 Sudeste 0 -- -- 60
2020-08-23 17:00:00 27.6 6 Sudeste 19 Sudeste 0 -- -- 58
2020-08-23 16:00:00 27.5 6 Sur 18 Sur 0 -- -- 60
2020-08-23 15:00:00 27.1 5 Sudeste 19 Este 0 -- -- 57
2020-08-23 14:00:00 27.4 10 Este 18 Este 0 -- -- 55
2020-08-23 13:00:00 28 10 Sudeste 23 Sur 0 -- -- 54
2020-08-23 12:00:00 27.3 8 Norte 20 Norte 0 -- -- 54
2020-08-23 11:00:00 26.1 8 Norte 27 Norte 0 -- -- 56
2020-08-23 10:00:00 24.3 11 Norte 31 Norte 0 -- -- 59
2020-08-23 09:00:00 23.6 12 Norte 32 Norte 0 -- -- 59
2020-08-23 08:00:00 22.9 12 Norte 35 Norte 0 -- -- 61
2020-08-23 07:00:00 23 11 Norte 32 Norte 0 -- -- 61
2020-08-23 06:00:00 23.6 13 Norte 32 Norte 0 -- -- 62
2020-08-23 05:00:00 24.2 14 Norte 31 Norte 0 -- -- 59
2020-08-23 04:00:00 24.4 13 Norte 31 Norte 0 -- -- 58
2020-08-23 03:00:00 24.6 12 Norte 29 Norte 0 -- -- 56
2020-08-23 02:00:00 25.1 15 Norte 33 Noroeste 0 -- -- 54
2020-08-23 01:00:00 25.5 12 Norte 33 Noroeste 0 -- -- 52
2020-08-23 00:00:00 25.8 14 Norte 30 Noroeste 0 -- -- 51
2020-08-22 23:00:00 26.2 14 Norte 30 Norte 0 -- -- 51
2020-08-22 22:00:00 26.7 12 Norte 28 Noroeste 0 -- -- 51
2020-08-22 21:00:00 27.6 12 Norte 22 Norte 0 -- -- 51
2020-08-22 20:00:00 28.9 0 Calma 8 Nordeste 0 -- -- 57
2020-08-22 19:00:00 29.3 0 Calma 6 Sur 0 -- -- 57
2020-08-22 18:00:00 29.4 4 Este 15 Sudeste 0 -- -- 58
2020-08-22 17:00:00 30.1 9 Este 22 Este 0 -- -- 56
2020-08-22 16:00:00 31.1 10 Este 25 Este 0 -- -- 50
2020-08-22 15:00:00 31.1 12 Este 23 Este 0 -- -- 51
2020-08-22 14:00:00 30.3 11 Este 24 Este 0 -- -- 57
2020-08-22 13:00:00 30.4 10 Este 20 Sudeste 0 -- -- 58
2020-08-22 12:00:00 31.5 10 Este 24 Este 0 -- -- 49
2020-08-22 11:00:00 30.1 9 Norte 21 Noroeste 0 -- -- 51
2020-08-22 10:00:00 28.5 9 Norte 20 Noroeste 0 -- -- 57
2020-08-22 09:00:00 26 4 Sudoeste 15 Oeste 0 -- -- 69
2020-08-22 08:00:00 25.3 6 Oeste 15 Noroeste 0 -- -- 72
2020-08-22 07:00:00 24.6 5 Noroeste 31 Norte 0 -- -- 72
2020-08-22 06:00:00 24.9 13 Norte 32 Nordeste 0 -- -- 69
2020-08-22 05:00:00 25.3 3 Norte 12 Nordeste 0 -- -- 91
2020-08-22 04:00:00 25 3 Este 10 Este 0 -- -- 95
2020-08-22 03:00:00 24.1 3 Oeste 6 Oeste 0 -- -- 93
2020-08-22 02:00:00 24.6 0 Calma 9 Oeste 0 -- -- 91
2020-08-22 01:00:00 25 3 Oeste 5 Sudoeste 0 -- -- 91
2020-08-22 00:00:00 25.6 0 Calma 4 Oeste 0 -- -- 90
2020-08-21 23:00:00 26.4 0 Calma 5 Este 0 -- -- 89
2020-08-21 22:00:00 27.2 3 Este 10 Sur 0 -- -- 87
2020-08-21 21:00:00 27.4 4 Sudeste 9 Sur 0 -- -- 86
2020-08-21 20:00:00 28 4 Sur 16 Sur 0 -- -- 83
2020-08-21 19:00:00 28.7 7 Sur 22 Sur 0 -- -- 79
2020-08-21 18:00:00 29.3 9 Sudeste 24 Sudeste 0 -- -- 77
2020-08-21 17:00:00 29.1 8 Sudeste 22 Sudeste 0 -- -- 78
2020-08-21 16:00:00 28.8 11 Sudeste 21 Sudeste 0 -- -- 80
2020-08-21 15:00:00 30.3 11 Sudeste 22 Sudeste 0 -- -- 74
2020-08-21 14:00:00 30.3 10 Sudeste 20 Sudoeste 0 -- -- 71
2020-08-21 13:00:00 29.6 10 Sur 20 Sudeste 0 -- -- 73
2020-08-21 12:00:00 29.7 8 Sudoeste 18 Sudoeste 0 -- -- 69
2020-08-21 11:00:00 27.6 7 Sudeste 15 Sur 0 -- -- 81
2020-08-21 10:00:00 27.5 6 Sur 17 Sudoeste 0 -- -- 82
2020-08-21 09:00:00 23.5 3 Noroeste 10 Oeste 0 -- -- 94
2020-08-21 08:00:00 21.3 4 Oeste 9 Sudoeste 0 -- -- 96
2020-08-21 07:00:00 21.4 5 Oeste 9 Oeste 0 -- -- 97
2020-08-21 06:00:00 21.6 4 Oeste 11 Oeste 0 -- -- 96
2020-08-21 05:00:00 21.8 5 Oeste 9 Oeste 0 -- -- 96
2020-08-21 04:00:00 21.9 3 Oeste 8 Oeste 0 -- -- 94
2020-08-21 03:00:00 22.6 4 Oeste 8 Oeste 0 -- -- 94
2020-08-21 02:00:00 23.3 2 Oeste 8 Oeste 0 -- -- 92
2020-08-21 01:00:00 24.2 2 Oeste 7 Oeste 0 -- -- 91
2020-08-21 00:00:00 24.9 3 Sur 4 Sur 0 -- -- 90
2020-08-20 23:00:00 26.1 0 Calma 5 Nordeste 0 -- -- 87
2020-08-20 22:00:00 26.7 0 Calma 8 Este 0 -- -- 86
2020-08-20 21:00:00 27.2 4 Sur 10 Este 0 -- -- 86
2020-08-20 20:00:00 27.7 4 Sur 16 Sudeste 0 -- -- 84
2020-08-20 19:00:00 28.4 6 Sur 23 Sur 0 -- -- 80
2020-08-20 18:00:00 28.7 9 Sudeste 28 Sur 0 -- -- 79
2020-08-20 17:00:00 29.3 12 Sur 31 Sur 0 -- -- 77
2020-08-20 16:00:00 30.3 12 Sur 28 Sur 0 -- -- 72
2020-08-20 15:00:00 29.9 13 Sudoeste 33 Sudoeste 0 -- -- 74
2020-08-20 14:00:00 29.5 11 Sudoeste 25 Sur 0 -- -- 76
2020-08-20 13:00:00 28.8 10 Sudoeste 24 Sudoeste 0 -- -- 79
2020-08-20 12:00:00 29.4 10 Sur 27 Sur 0 -- -- 77
2020-08-20 11:00:00 29.4 11 Sur 26 Sur 0 -- -- 73
2020-08-20 10:00:00 28.1 14 Sur 24 Sur 0 -- -- 79
2020-08-20 09:00:00 26 12 Sur 21 Sur 0 -- -- 86
2020-08-20 08:00:00 20.6 6 Noroeste 10 Oeste 0 -- -- 92
2020-08-20 07:00:00 20.2 4 Oeste 13 Oeste 0 -- -- 94
2020-08-20 06:00:00 20.9 5 Oeste 11 Oeste 0 -- -- 94
2020-08-20 05:00:00 21.4 6 Oeste 12 Sudoeste 0 -- -- 94
2020-08-20 04:00:00 22.2 3 Oeste 10 Oeste 0 -- -- 91
2020-08-20 03:00:00 24 3 Oeste 19 Sudoeste 0 -- -- 86
2020-08-20 02:00:00 25.5 9 Sur 19 Sudoeste 0 -- -- 85
2020-08-20 01:00:00 25.7 7 Sudoeste 20 Sudoeste 0 -- -- 85
2020-08-20 00:00:00 25.9 8 Sudoeste 16 Sur 0 -- -- 83
2020-08-19 23:00:00 26.1 6 Sur 15 Sur 0 -- -- 80
2020-08-19 22:00:00 26.6 7 Sudeste 17 Sudeste 0 -- -- 77
2020-08-19 21:00:00 27.3 5 Noroeste 26 Oeste 0 -- -- 71
2020-08-19 20:00:00 28.3 8 Nordeste 24 Sudoeste 0 -- -- 66
2020-08-19 19:00:00 29.4 6 Noroeste 25 Oeste 0 -- -- 61
2020-08-19 18:00:00 29.8 9 Sur 34 Sur 0 -- -- 64
2020-08-19 17:00:00 29.7 19 Sur 40 Sur 0 -- -- 67
2020-08-19 16:00:00 29.9 18 Sur 46 Sudoeste 0 -- -- 68
2020-08-19 15:00:00 29.9 17 Sur 36 Sudoeste 0 -- -- 69
2020-08-19 14:00:00 29.6 14 Sur 37 Sur 0 -- -- 70
2020-08-19 13:00:00 28.9 16 Sur 35 Sur 0 -- -- 69
2020-08-19 12:00:00 28.9 15 Sur 29 Sudoeste 0 -- -- 67
2020-08-19 11:00:00 28.4 9 Sur 19 Sudoeste 0 -- -- 63
2020-08-19 10:00:00 25.4 3 Noroeste 13 Sudoeste 0 -- -- 73
2020-08-19 09:00:00 22.8 5 Sudoeste 12 Oeste 0 -- -- 76
2020-08-19 08:00:00 19.3 4 Sudoeste 13 Sudoeste 0 -- -- 90
2020-08-19 07:00:00 18.5 3 Sudoeste 11 Sudoeste 0 -- -- 92
2020-08-19 06:00:00 18.9 3 Oeste 10 Noroeste 0 -- -- 92
2020-08-19 05:00:00 19.2 4 Oeste 10 Noroeste 0 -- -- 91
2020-08-19 04:00:00 19.6 4 Oeste 14 Oeste 0 -- -- 91
2020-08-19 03:00:00 19.9 5 Oeste 14 Sudoeste 0 -- -- 91
2020-08-19 02:00:00 20.1 3 Oeste 10 Oeste 0 -- -- 89
2020-08-19 01:00:00 20.6 3 Oeste 9 Oeste 0 -- -- 87
2020-08-19 00:00:00 21.4 3 Oeste 9 Oeste 0 -- -- 85